Time;durP1;ratioP1;P1;durP2;ratioP2;P2;SDS_P1;SDS_P2;PMS_P1;PMS_P2;Temp;Humidity;BMP_temperature;BMP_pressure;BME280_temperature;BME280_humidity;BME280_pressure;Samples;Min_cycle;Max_cycle;Signal;HPM_P1;HPM_P2
2021/03/25 00:01:29;;;;;;;15.53;6.93;;;;;;;;;;5084385;28;20539;-69
2021/03/25 00:03:56;;;;;;;14.77;8.40;;;;;;;;;;5092804;28;20444;-68
2021/03/25 00:06:23;;;;;;;11.63;7.20;;;;;;;;;;5073308;28;20525;-69
2021/03/25 00:08:51;;;;;;;13.90;7.67;;;;;;;;;;5084248;28;20824;-69
2021/03/25 00:11:18;;;;;;;11.80;7.53;;;;;;;;;;5080316;28;20511;-69
2021/03/25 00:13:45;;;;;;;10.17;7.60;;;;;;;;;;5090537;28;20526;-69
2021/03/25 00:16:12;;;;;;;11.10;7.73;;;;;;;;;;5092117;28;20479;-69
2021/03/25 00:18:39;;;;;;;12.63;8.17;;;;;;;;;;5073374;28;20885;-69
2021/03/25 00:21:07;;;;;;;17.90;7.70;;;;;;;;;;5084872;28;20540;-69
2021/03/25 00:23:34;;;;;;;12.57;7.33;;;5.60;1.00;;;;;;5088562;28;20480;-69
2021/03/25 00:26:02;;;;;;;11.63;8.60;;;4.60;99.90;;;;;;5086883;28;20534;-69
2021/03/25 00:28:28;;;;;;;12.80;8.40;;;4.50;99.90;;;;;;5083722;28;20488;-69
2021/03/25 00:30:55;;;;;;;10.63;7.60;;;4.50;99.90;;;;;;5083031;28;20576;-69
2021/03/25 00:33:23;;;;;;;14.70;8.27;;;4.50;99.90;;;;;;5073018;28;20477;-69
2021/03/25 00:35:50;;;;;;;10.93;7.00;;;4.50;99.90;;;;;;5081511;28;20521;-69
2021/03/25 00:38:18;;;;;;;16.60;8.17;;;4.40;99.90;;;;;;5084890;28;20499;-69
2021/03/25 00:40:46;;;;;;;14.87;8.87;;;4.40;99.90;;;;;;5080954;28;20456;-69
2021/03/25 00:43:14;;;;;;;12.73;8.23;;;4.30;99.90;;;;;;5092243;28;20533;-69
2021/03/25 00:45:43;;;;;;;17.23;8.07;;;4.20;99.90;;;;;;5079579;28;20484;-69
2021/03/25 00:48:11;;;;;;;15.73;7.63;;;4.20;99.90;;;;;;5084307;28;20535;-69
2021/03/25 00:50:40;;;;;;;11.57;8.53;;;4.30;99.90;;;;;;5086030;28;20512;-69
2021/03/25 00:53:09;;;;;;;10.87;6.60;;;4.10;99.90;;;;;;5087636;28;20802;-69
2021/03/25 00:55:35;;;;;;;11.60;7.90;;;4.00;99.90;;;;;;5079512;28;20918;-69
2021/03/25 00:58:02;;;;;;;22.13;7.23;;;4.00;99.90;;;;;;5073423;28;20446;-70
2021/03/25 01:00:34;;;;;;;12.13;8.43;;;3.90;99.90;;;;;;5078368;28;20537;-69
2021/03/25 01:03:01;;;;;;;13.10;7.63;;;3.90;99.90;;;;;;5084152;28;20450;-69
2021/03/25 01:05:29;;;;;;;13.37;8.93;;;4.10;99.90;;;;;;5088586;28;21021;-69
2021/03/25 01:07:55;;;;;;;14.30;8.37;;;4.10;99.90;;;;;;5092492;28;20589;-69
2021/03/25 01:10:28;;;;;;;10.63;8.40;;;4.10;99.90;;;;;;5080157;28;20513;-69
2021/03/25 01:12:55;;;;;;;12.23;8.00;;;4.10;99.90;;;;;;5081494;28;20515;-69
2021/03/25 01:15:22;;;;;;;13.80;8.07;;;4.20;99.90;;;;;;5071537;28;20530;-69
2021/03/25 01:17:50;;;;;;;12.77;7.70;;;4.20;99.90;;;;;;5086338;28;20486;-69
2021/03/25 01:20:20;;;;;;;15.63;9.17;;;4.20;99.90;;;;;;5085504;28;20493;-69
2021/03/25 01:22:47;;;;;;;13.00;7.53;;;4.20;99.90;;;;;;5070821;28;20532;-69
2021/03/25 01:25:14;;;;;;;13.27;8.10;;;4.20;99.90;;;;;;5081455;28;20477;-69
2021/03/25 01:27:42;;;;;;;11.20;7.60;;;4.10;99.90;;;;;;5091331;28;20566;-69
2021/03/25 01:30:09;;;;;;;14.20;7.83;;;4.10;99.90;;;;;;5080615;28;20563;-69
2021/03/25 01:32:36;;;;;;;13.47;8.03;;;4.00;99.90;;;;;;5085253;28;20497;-69
2021/03/25 01:35:05;;;;;;;12.10;7.90;;;4.00;99.90;;;;;;5083453;28;20584;-69
2021/03/25 01:37:32;;;;;;;14.30;8.57;;;4.00;99.90;;;;;;5080547;28;20536;-69
2021/03/25 01:39:58;;;;;;;14.60;8.07;;;3.90;99.90;;;;;;5076252;28;20443;-68
2021/03/25 01:42:27;;;;;;;12.70;8.20;;;3.80;99.90;;;;;;5071425;28;20540;-68
2021/03/25 01:44:54;;;;;;;14.73;9.17;;;3.90;99.90;;;;;;5071322;28;20477;-68
2021/03/25 01:47:21;;;;;;;11.60;7.73;;;4.00;99.90;;;;;;5071651;28;20450;-68
2021/03/25 01:49:47;;;;;;;12.90;7.67;;;4.00;99.90;;;;;;5078811;28;20537;-68
2021/03/25 01:52:47;;;;;;;11.27;7.73;;;3.80;99.90;;;;;;5084439;28;20537;-69
2021/03/25 01:55:34;;;;;;;13.77;8.20;;;3.90;99.90;;;;;;5071062;28;20524;-68
2021/03/25 01:58:37;;;;;;;15.47;8.73;;;3.90;99.90;;;;;;5073637;28;20536;-68
2021/03/25 02:01:06;;;;;;;16.23;8.90;;;3.90;99.90;;;;;;5080374;28;20449;-70
2021/03/25 02:04:03;;;;;;;14.80;8.50;;;3.90;99.90;;;;;;5088132;28;20534;-68
2021/03/25 02:06:37;;;;;;;18.50;7.70;;;3.90;99.90;;;;;;5043742;28;20500;-68
2021/03/25 02:09:15;;;;;;;14.90;8.70;;;3.70;99.90;;;;;;5082043;28;20459;-68
2021/03/25 02:11:47;;;;;;;13.23;8.73;;;3.80;99.90;;;;;;5074865;28;20484;-68
2021/03/25 02:14:20;;;;;;;12.63;7.73;;;3.90;99.90;;;;;;5070415;28;20450;-70
2021/03/25 02:16:58;;;;;;;11.20;7.07;;;3.90;99.90;;;;;;5086060;28;20528;-69
2021/03/25 02:19:37;;;;;;;11.43;7.37;;;3.90;99.90;;;;;;5080284;28;21020;-68
2021/03/25 02:22:20;;;;;;;13.30;7.20;;;4.10;99.90;;;;;;5088577;28;20635;-70
2021/03/25 02:24:55;;;;;;;14.57;9.00;;;4.00;99.90;;;;;;5073293;28;20467;-69
2021/03/25 02:27:56;;;;;;;8.90;7.17;;;4.10;99.90;;;;;;5082326;28;20505;-68
2021/03/25 02:30:29;;;;;;;13.07;8.10;;;4.20;99.90;;;;;;5079476;28;20563;-69
2021/03/25 02:32:59;;;;;;;16.03;8.90;;;4.20;99.90;;;;;;5079388;28;20566;-68
2021/03/25 02:35:30;;;;;;;11.67;8.00;;;4.30;99.90;;;;;;5091277;28;20472;-68
2021/03/25 02:38:07;;;;;;;32.53;8.93;;;4.40;99.90;;;;;;5070972;28;20524;-68
2021/03/25 02:40:38;;;;;;;12.43;7.27;;;4.40;99.90;;;;;;5071181;28;20481;-68
2021/03/25 02:43:08;;;;;;;13.20;7.93;;;4.30;99.90;;;;;;5070031;28;20536;-68
2021/03/25 02:45:39;;;;;;;13.03;8.10;;;4.40;99.90;;;;;;5085490;28;20444;-68
2021/03/25 02:48:11;;;;;;;14.70;8.40;;;4.40;99.90;;;;;;5080198;28;20445;-68
2021/03/25 02:50:41;;;;;;;14.17;7.50;;;4.40;99.90;;;;;;5070838;28;20597;-69
2021/03/25 02:53:15;;;;;;;11.50;7.80;;;4.40;99.90;;;;;;5069824;28;20539;-68
2021/03/25 02:55:42;;;;;;;15.13;8.13;;;4.40;99.90;;;;;;5084374;28;20499;-69
2021/03/25 02:58:14;;;;;;;11.00;7.30;;;4.50;99.90;;;;;;5090951;28;20595;-68
2021/03/25 03:00:43;;;;;;;9.47;7.70;;;4.30;99.90;;;;;;5083355;28;20567;-67
2021/03/25 03:03:15;;;;;;;11.83;7.10;;;4.30;99.90;;;;;;5090099;28;20524;-67
2021/03/25 03:05:44;;;;;;;12.27;8.20;;;4.30;99.90;;;;;;5070529;28;20581;-67
2021/03/25 03:08:15;;;;;;;11.10;6.57;;;4.30;99.90;;;;;;5071741;28;20525;-67
2021/03/25 03:10:47;;;;;;;10.80;8.00;;;4.30;99.90;;;;;;5070980;28;20516;-67
2021/03/25 03:13:16;;;;;;;10.13;7.27;;;4.40;99.90;;;;;;5070356;28;20503;-68
2021/03/25 03:15:48;;;;;;;12.03;7.60;;;4.40;99.90;;;;;;5076888;28;20579;-68
2021/03/25 03:18:21;;;;;;;7.87;6.50;;;4.40;99.90;;;;;;5087199;28;20549;-69
2021/03/25 03:20:54;;;;;;;15.83;7.07;;;4.40;99.90;;;;;;5078629;28;20484;-68
2021/03/25 03:23:22;;;;;;;13.60;7.43;;;4.30;99.90;;;;;;5075091;28;20952;-68
2021/03/25 03:25:49;;;;;;;11.53;8.00;;;4.40;99.90;;;;;;5089870;28;20489;-68
2021/03/25 03:28:20;;;;;;;15.70;8.20;;;4.40;99.90;;;;;;5085419;28;20525;-68
2021/03/25 03:30:50;;;;;;;13.20;7.73;;;4.40;99.90;;;;;;5070123;28;20571;-68
2021/03/25 03:33:22;;;;;;;8.83;6.43;;;4.30;99.90;;;;;;5070426;28;20449;-68
2021/03/25 03:35:51;;;;;;;14.77;7.20;;;4.30;99.90;;;;;;5070525;28;20532;-69
2021/03/25 03:38:26;;;;;;;9.57;6.90;;;4.10;99.90;;;;;;5071755;28;20455;-69
2021/03/25 03:40:55;;;;;;;9.13;6.87;;;3.90;99.90;;;;;;5083443;28;20448;-69
2021/03/25 03:43:22;;;;;;;10.83;7.00;;;3.80;99.90;;;;;;5080035;28;20456;-69
2021/03/25 03:45:54;;;;;;;10.67;6.83;;;3.80;99.90;;;;;;5069786;28;20489;-68
2021/03/25 03:48:29;;;;;;;13.37;8.40;;;3.90;99.90;;;;;;5070772;28;20498;-70
2021/03/25 03:50:59;;;;;;;12.13;6.47;;;4.10;99.90;;;;;;5087702;28;20570;-68
2021/03/25 03:53:27;;;;;;;11.03;6.97;;;4.20;99.90;;;;;;5089786;28;20537;-69
2021/03/25 03:56:06;;;;;;;11.47;7.07;;;4.40;99.90;;;;;;5089903;28;20593;-69
2021/03/25 03:58:40;;;;;;;9.90;7.13;;;4.30;99.90;;;;;;5086968;28;20523;-70
2021/03/25 04:01:09;;;;;;;12.37;7.73;;;4.40;99.90;;;;;;5082571;28;20904;-69
2021/03/25 04:03:40;;;;;;;10.53;7.60;;;4.40;99.90;;;;;;5076999;28;20546;-69
2021/03/25 04:06:10;;;;;;;10.53;7.13;;;4.30;99.90;;;;;;5077527;28;20456;-69
2021/03/25 04:08:41;;;;;;;8.30;7.23;;;4.40;99.90;;;;;;5073537;28;20473;-69
2021/03/25 04:11:13;;;;;;;9.50;6.00;;;4.40;99.90;;;;;;5087646;28;20621;-69
2021/03/25 04:13:43;;;;;;;10.23;6.97;;;4.40;99.90;;;;;;5074341;28;20524;-67
2021/03/25 04:16:10;;;;;;;8.47;6.20;;;4.30;99.90;;;;;;5089787;28;20476;-67
2021/03/25 04:18:46;;;;;;;10.73;7.60;;;4.30;99.90;;;;;;5081770;28;20458;-69
2021/03/25 04:21:19;;;;;;;10.93;6.73;;;4.30;99.90;;;;;;5087195;28;20541;-68
2021/03/25 04:23:47;;;;;;;10.00;6.63;;;4.30;99.90;;;;;;5084576;28;20484;-68
2021/03/25 04:26:22;;;;;;;9.00;5.90;;;4.20;99.90;;;;;;5088196;28;20588;-68
2021/03/25 04:28:52;;;;;;;10.97;7.00;;;4.20;99.90;;;;;;5082227;28;20463;-68
2021/03/25 04:31:19;;;;;;;8.23;5.60;;;4.20;99.90;;;;;;5077925;28;20492;-68
2021/03/25 04:33:46;;;;;;;8.90;6.33;;;4.10;99.90;;;;;;5072468;28;20525;-68
2021/03/25 04:36:17;;;;;;;11.37;5.97;;;4.20;99.90;;;;;;5073907;28;20480;-69
2021/03/25 04:38:44;;;;;;;7.60;6.20;;;4.10;99.90;;;;;;5073055;28;20501;-68
2021/03/25 04:41:13;;;;;;;8.33;7.00;;;4.10;99.90;;;;;;5088892;28;20451;-69
2021/03/25 04:43:40;;;;;;;13.57;5.90;;;4.20;99.90;;;;;;5073823;28;20453;-69
2021/03/25 04:46:28;;;;;;;7.70;5.70;;;4.30;99.90;;;;;;5075524;28;20524;-69
2021/03/25 04:48:58;;;;;;;8.37;6.40;;;4.20;99.90;;;;;;5076369;28;20538;-68
2021/03/25 04:51:26;;;;;;;10.30;7.10;;;3.90;99.90;;;;;;5086137;28;20572;-70
2021/03/25 04:54:08;;;;;;;12.27;6.37;;;3.90;99.90;;;;;;5079539;28;20443;-68
2021/03/25 04:56:35;;;;;;;15.63;7.00;;;3.90;99.90;;;;;;5083372;28;20463;-69
2021/03/25 04:59:02;;;;;;;11.33;5.70;;;4.00;99.90;;;;;;5088918;28;20441;-69
2021/03/25 05:01:31;;;;;;;11.27;6.30;;;4.00;99.90;;;;;;5083813;28;20523;-68
2021/03/25 05:04:02;;;;;;;8.43;5.83;;;4.10;99.90;;;;;;5092614;28;20484;-70
2021/03/25 05:06:31;;;;;;;9.30;5.07;;;4.00;99.90;;;;;;5092431;28;20526;-69
2021/03/25 05:08:58;;;;;;;9.17;6.00;;;4.10;99.90;;;;;;5088707;28;20617;-69
2021/03/25 05:11:26;;;;;;;11.20;6.50;;;3.90;99.90;;;;;;5083179;28;20544;-68
2021/03/25 05:13:57;;;;;;;9.40;6.00;;;3.90;99.90;;;;;;5077718;28;20467;-68
2021/03/25 05:16:35;;;;;;;7.47;5.80;;;3.90;99.90;;;;;;5077260;28;20494;-68
2021/03/25 05:19:15;;;;;;;7.67;6.23;;;4.00;99.90;;;;;;5080007;28;20480;-69
2021/03/25 05:21:48;;;;;;;10.40;5.47;;;4.10;99.90;;;;;;5086494;28;20540;-69
2021/03/25 05:24:27;;;;;;;8.40;6.13;;;4.00;99.90;;;;;;5079747;28;20996;-68
2021/03/25 05:27:00;;;;;;;8.50;5.80;;;3.90;99.90;;;;;;5092030;28;20550;-68
2021/03/25 05:29:28;;;;;;;10.87;6.87;;;4.00;99.90;;;;;;5088040;28;20899;-67
2021/03/25 05:31:56;;;;;;;8.30;5.57;;;3.90;99.90;;;;;;5081527;28;21032;-67
2021/03/25 05:34:25;;;;;;;9.33;6.53;;;4.00;99.90;;;;;;5081544;28;20972;-72
2021/03/25 05:36:55;;;;;;;8.60;6.20;;;3.80;99.90;;;;;;5081102;28;20529;-67
2021/03/25 05:39:24;;;;;;;10.90;8.03;;;3.80;99.90;;;;;;5071849;28;20965;-67
2021/03/25 05:42:01;;;;;;;9.17;5.83;;;3.90;99.90;;;;;;5071826;28;20477;-70
2021/03/25 05:45:04;;;;;;;11.57;6.90;;;3.90;99.90;;;;;;5085345;28;20816;-69
2021/03/25 05:47:58;;;;;;;8.07;5.97;;;4.00;99.90;;;;;;5089214;28;21010;-68
2021/03/25 05:50:33;;;;;;;12.20;5.50;;;4.10;99.90;;;;;;5076282;28;20566;-68
2021/03/25 05:53:13;;;;;;;10.00;6.43;;;4.20;99.90;;;;;;5071418;28;20537;-68
2021/03/25 05:55:54;;;;;;;10.40;5.87;;;4.20;99.90;;;;;;5071804;28;20465;-67
2021/03/25 05:58:34;;;;;;;13.27;6.20;;;4.20;99.90;;;;;;5071508;28;20536;-67
2021/03/25 06:01:19;;;;;;;8.00;5.80;;;4.20;99.90;;;;;;5071176;28;20531;-67
2021/03/25 06:03:58;;;;;;;9.57;5.80;;;4.20;99.90;;;;;;5072037;28;20548;-68
2021/03/25 06:06:39;;;;;;;9.57;6.17;;;4.20;99.90;;;;;;5077981;28;20930;-67
2021/03/25 06:09:13;;;;;;;9.20;5.30;;;4.30;99.90;;;;;;5079865;28;20471;-67
2021/03/25 06:11:50;;;;;;;8.30;6.03;;;4.40;99.90;;;;;;5091329;28;20576;-67
2021/03/25 06:14:29;;;;;;;9.00;5.40;;;4.50;99.90;;;;;;5091722;28;20518;-67
2021/03/25 06:17:10;;;;;;;6.33;5.30;;;4.50;99.90;;;;;;5090819;28;20515;-67
2021/03/25 06:19:57;;;;;;;11.70;5.80;;;4.50;99.90;;;;;;5091587;28;20477;-68
2021/03/25 06:22:32;;;;;;;7.50;5.87;;;4.60;99.90;;;;;;5091637;28;20544;-68
2021/03/25 06:25:39;;;;;;;7.13;5.50;;;4.70;93.40;;;;;;5090746;28;20540;-68
2021/03/25 06:28:22;;;;;;;9.00;5.80;;;4.80;34.10;;;;;;5090400;28;20540;-67
2021/03/25 06:31:24;;;;;;;11.40;5.80;;;5.00;11.90;;;;;;5090870;28;20484;-67
2021/03/25 06:34:01;;;;;;;8.50;5.30;;;5.10;1.00;;;;;;5090947;28;20483;-67
2021/03/25 06:36:47;;;;;;;7.87;6.00;;;5.40;1.00;;;;;;5090569;28;20605;-67
2021/03/25 06:39:27;;;;;;;8.17;5.93;;;5.50;99.90;;;;;;5091102;28;20799;-67
2021/03/25 06:42:04;;;;;;;7.90;5.50;;;5.70;99.90;;;;;;5090836;28;20533;-67
2021/03/25 06:44:39;;;;;;;8.50;5.60;;;5.80;99.90;;;;;;5091540;28;20460;-67
2021/03/25 06:47:16;;;;;;;12.27;6.30;;;5.80;99.90;;;;;;5090620;28;20967;-67
2021/03/25 06:49:48;;;;;;;9.80;6.80;;;5.80;99.90;;;;;;5090917;28;20935;-68
2021/03/25 06:52:27;;;;;;;8.13;5.90;;;5.80;99.90;;;;;;5090983;28;21070;-67
2021/03/25 06:55:03;;;;;;;9.40;6.23;;;6.00;99.90;;;;;;5090757;28;20528;-67
2021/03/25 06:57:39;;;;;;;9.60;7.10;;;6.10;1.00;;;;;;5098985;28;20505;-67
2021/03/25 07:00:07;;;;;;;8.77;5.27;;;6.20;1.00;;;;;;5091587;28;20534;-67
2021/03/25 07:02:36;;;;;;;8.83;5.90;;;6.30;1.00;;;;;;5090940;28;20540;-68
2021/03/25 07:05:08;;;;;;;11.73;5.60;;;6.30;99.90;;;;;;5088418;28;20533;-67
2021/03/25 07:07:38;;;;;;;11.37;6.40;;;6.40;4.60;;;;;;5070372;28;20481;-67
2021/03/25 07:10:07;;;;;;;8.13;5.90;;;6.60;99.90;;;;;;5069954;28;20498;-68
2021/03/25 07:12:37;;;;;;;10.90;6.50;;;6.70;1.00;;;;;;5070823;28;20533;-69
2021/03/25 07:15:07;;;;;;;7.30;5.57;;;6.90;99.90;;;;;;5070118;28;20518;-67
2021/03/25 07:17:39;;;;;;;9.27;6.33;;;7.00;1.00;;;;;;5070091;28;20528;-69
2021/03/25 07:20:20;;;;;;;8.93;6.40;;;7.20;99.90;;;;;;5070065;28;20481;-67
2021/03/25 07:23:01;;;;;;;11.37;6.57;;;7.30;1.00;;;;;;5070066;28;20473;-67
2021/03/25 07:25:29;;;;;;;7.80;5.77;;;7.50;99.90;;;;;;5070393;28;20548;-67
2021/03/25 07:27:58;;;;;;;7.23;5.30;;;7.60;1.00;;;;;;5069858;28;20445;-67
2021/03/25 07:30:25;;;;;;;6.30;4.50;;;7.80;1.00;;;;;;5070397;28;20513;-68
2021/03/25 07:32:55;;;;;;;6.50;4.67;;;8.00;99.90;;;;;;5070016;28;20877;-68
2021/03/25 07:35:29;;;;;;;9.63;6.20;;;8.20;1.00;;;;;;5070446;28;20520;-68
2021/03/25 07:37:57;;;;;;;8.57;5.93;;;8.30;1.00;;;;;;5071216;28;20460;-68
2021/03/25 07:40:29;;;;;;;9.00;5.17;;;8.50;1.00;;;;;;5074489;28;20544;-68
2021/03/25 07:42:57;;;;;;;7.30;5.00;;;8.60;99.90;;;;;;5081156;28;20829;-68
2021/03/25 07:45:27;;;;;;;7.13;5.10;;;8.70;99.90;;;;;;5094563;28;20835;-68
2021/03/25 07:47:55;;;;;;;5.93;5.33;;;;;;;;;;5093879;28;20544;-68
2021/03/25 07:50:24;;;;;;;8.13;4.77;;;8.90;99.90;;;;;;5094761;28;20483;-67
2021/03/25 07:52:51;;;;;;;5.77;4.17;;;9.30;1.00;;;;;;5094270;28;20519;-67
2021/03/25 07:55:31;;;;;;;8.23;4.73;;;9.50;1.00;;;;;;5094568;28;20852;-66
2021/03/25 07:57:59;;;;;;;9.93;5.40;;;9.50;1.00;;;;;;5093647;28;20497;-67
2021/03/25 08:00:29;;;;;;;7.80;4.40;;;9.80;1.00;;;;;;5093937;28;20467;-67
2021/03/25 08:03:13;;;;;;;7.07;5.30;;;10.00;1.00;;;;;;5093962;28;20467;-67
2021/03/25 08:05:40;;;;;;;11.43;5.87;;;10.00;1.00;;;;;;5073704;28;20456;-66
2021/03/25 08:08:22;;;;;;;8.87;5.60;;;10.20;1.00;;;;;;5072519;28;20524;-67
2021/03/25 08:10:52;;;;;;;5.30;4.10;;;10.20;1.00;;;;;;5073434;28;20485;-68
2021/03/25 08:13:23;;;;;;;10.93;6.60;;;;;;;;;;5073772;28;20437;-68
2021/03/25 08:15:50;;;;;;;9.60;7.17;;;;;;;;;;5073165;28;20480;-67
2021/03/25 08:18:47;;;;;;;12.10;7.63;;;10.30;1.00;;;;;;5073120;28;20450;-67
2021/03/25 08:21:38;;;;;;;13.27;8.07;;;10.60;1.00;;;;;;5073614;28;20496;-67
2021/03/25 08:24:38;;;;;;;16.40;10.17;;;12.00;1.00;;;;;;5072985;28;20473;-67
2021/03/25 08:27:20;;;;;;;23.73;8.90;;;11.90;99.90;;;;;;5024904;28;20595;-67
2021/03/25 08:29:57;;;;;;;13.57;8.80;;;11.50;99.90;;;;;;5072996;28;20793;-67
2021/03/25 08:32:33;;;;;;;15.90;8.10;;;11.30;99.90;;;;;;5072907;28;20595;-68
2021/03/25 08:35:13;;;;;;;16.70;9.40;;;11.20;99.90;;;;;;5080240;28;20523;-68
2021/03/25 08:37:55;;;;;;;14.57;8.37;;;11.10;99.90;;;;;;5093049;28;20527;-68
2021/03/25 08:40:30;;;;;;;15.73;9.40;;;11.20;99.90;;;;;;5093037;28;20436;-67
2021/03/25 08:43:01;;;;;;;17.50;9.30;;;11.20;99.90;;;;;;5092775;28;20451;-67
2021/03/25 08:45:32;;;;;;;12.33;9.17;;;11.30;99.90;;;;;;5093043;28;20932;-67
2021/03/25 08:48:03;;;;;;;13.77;8.10;;;11.40;99.90;;;;;;5092229;28;20459;-67
2021/03/25 08:50:36;;;;;;;14.90;8.33;;;11.40;99.90;;;;;;5093003;28;20483;-68
2021/03/25 08:53:09;;;;;;;13.73;9.00;;;11.50;99.90;;;;;;5092890;28;20468;-67
2021/03/25 08:55:38;;;;;;;16.33;9.37;;;11.50;99.90;;;;;;5093012;28;20507;-68
2021/03/25 08:58:11;;;;;;;11.77;8.83;;;11.60;99.90;;;;;;5091998;28;20590;-68
2021/03/25 09:00:41;;;;;;;14.07;7.83;;;11.70;99.90;;;;;;5092844;28;20543;-67
2021/03/25 09:03:15;;;;;;;8.80;6.97;;;11.70;99.90;;;;;;5092569;28;20483;-69
2021/03/25 09:05:53;;;;;;;15.30;7.33;;;12.00;99.90;;;;;;5073460;28;20878;-68
2021/03/25 09:08:22;;;;;;;11.77;7.40;;;12.10;99.90;;;;;;5073527;28;20499;-68
2021/03/25 09:10:53;;;;;;;14.00;9.00;;;12.30;99.90;;;;;;5071805;28;20599;-68
2021/03/25 09:13:23;;;;;;;14.10;8.40;;;12.40;99.90;;;;;;5072621;28;20529;-68
2021/03/25 09:15:52;;;;;;;11.53;7.40;;;12.40;99.90;;;;;;5072034;28;20841;-68
2021/03/25 09:18:21;;;;;;;13.37;7.93;;;12.60;99.90;;;;;;5072423;28;20484;-68
2021/03/25 09:20:53;;;;;;;17.57;8.20;;;12.70;99.90;;;;;;5071830;28;20971;-68
2021/03/25 09:23:47;;;;;;;11.03;7.83;;;12.80;99.90;;;;;;5072205;28;20449;-68
2021/03/25 09:26:52;;;;;;;11.60;7.23;;;12.90;99.90;;;;;;5071964;28;20495;-68
2021/03/25 09:29:23;;;;;;;10.67;8.43;;;13.10;99.90;;;;;;5077005;28;20878;-68
2021/03/25 09:32:19;;;;;;;15.13;8.47;;;13.10;99.90;;;;;;5076274;28;21015;-68
2021/03/25 09:34:48;;;;;;;13.50;8.10;;;13.10;99.90;;;;;;5071575;28;20877;-68
2021/03/25 09:37:19;;;;;;;9.73;8.23;;;13.20;99.90;;;;;;5071694;28;20449;-68
2021/03/25 09:40:08;;;;;;;16.53;8.20;;;13.20;99.90;;;;;;5078534;28;20456;-68
2021/03/25 09:42:35;;;;;;;9.13;7.37;;;13.30;99.90;;;;;;5092730;28;20484;-68
2021/03/25 09:45:19;;;;;;;13.60;7.20;;;13.30;99.90;;;;;;5092349;28;20999;-69
2021/03/25 09:47:58;;;;;;;16.23;8.90;;;13.20;99.90;;;;;;5091653;28;21023;-68
2021/03/25 09:50:25;;;;;;;12.30;8.73;;;13.20;99.90;;;;;;5092042;28;20487;-68
2021/03/25 09:53:06;;;;;;;10.60;7.90;;;13.20;99.90;;;;;;5091763;28;20798;-68
2021/03/25 09:55:38;;;;;;;16.70;8.53;;;13.20;99.90;;;;;;5091770;28;20543;-68
2021/03/25 09:58:25;;;;;;;14.33;8.20;;;13.30;99.90;;;;;;5091058;28;20535;-68
2021/03/25 10:00:56;;;;;;;18.80;8.10;;;13.20;99.90;;;;;;5090545;28;20527;-68
2021/03/25 10:04:04;;;;;;;10.60;7.60;;;13.30;99.90;;;;;;5091737;28;20896;-68
2021/03/25 10:06:51;;;;;;;10.87;7.57;;;13.50;99.90;;;;;;5077367;28;20468;-68
2021/03/25 10:09:23;;;;;;;13.53;7.10;;;13.50;99.90;;;;;;5071333;28;20446;-68
2021/03/25 10:11:55;;;;;;;18.57;8.03;;;13.60;99.90;;;;;;5070732;28;20580;-68
2021/03/25 10:14:48;;;;;;;9.17;6.27;;;13.80;99.90;;;;;;5071477;28;20524;-68
2021/03/25 10:17:48;;;;;;;15.73;8.50;;;13.90;99.90;;;;;;5078939;28;20493;-68
2021/03/25 10:20:48;;;;;;;9.90;7.77;;;14.00;99.90;;;;;;5087118;28;20594;-68
2021/03/25 10:23:17;;;;;;;11.23;6.70;;;14.10;99.90;;;;;;5091233;28;20825;-69
2021/03/25 10:25:43;;;;;;;12.50;7.00;;;14.20;99.90;;;;;;5091105;28;20484;-68
2021/03/25 10:28:13;;;;;;;16.30;6.97;;;14.30;99.90;;;;;;5090974;28;20441;-68
2021/03/25 10:30:40;;;;;;;15.87;7.60;;;14.50;92.00;;;;;;5091230;28;20492;-68
2021/03/25 10:33:11;;;;;;;8.90;5.20;;;14.50;63.60;;;;;;5090549;28;21047;-67
2021/03/25 10:35:47;;;;;;;15.57;6.70;;;14.60;53.80;;;;;;5091320;28;20444;-67
2021/03/25 10:38:15;;;;;;;16.90;7.60;;;14.60;58.30;;;;;;5091010;28;20814;-67
2021/03/25 10:40:45;;;;;;;10.63;7.27;;;14.60;53.30;;;;;;5091070;28;20453;-68
2021/03/25 10:43:16;;;;;;;13.93;7.70;;;14.70;48.40;;;;;;5091282;28;20440;-67
2021/03/25 10:45:50;;;;;;;13.83;6.53;;;14.70;49.20;;;;;;5090672;28;20874;-67
2021/03/25 10:48:31;;;;;;;12.90;6.90;;;14.70;41.40;;;;;;5091053;28;20448;-68
2021/03/25 10:51:02;;;;;;;11.20;6.60;;;14.80;41.10;;;;;;5090677;28;20931;-68
2021/03/25 10:53:34;;;;;;;10.87;6.40;;;14.80;35.50;;;;;;5090669;28;20445;-68
2021/03/25 10:56:05;;;;;;;11.90;6.23;;;14.90;35.10;;;;;;5089897;28;20483;-68
2021/03/25 10:58:36;;;;;;;12.47;6.90;;;15.00;28.70;;;;;;5090757;28;20473;-67
2021/03/25 11:01:14;;;;;;;9.60;6.17;;;15.00;26.30;;;;;;5090860;28;20445;-67
2021/03/25 11:03:43;;;;;;;9.80;6.37;;;15.10;23.10;;;;;;5090378;28;20480;-67
2021/03/25 11:06:19;;;;;;;11.70;6.03;;;15.20;17.60;;;;;;5078269;28;20477;-67
2021/03/25 11:08:45;;;;;;;10.93;7.20;;;15.40;10.70;;;;;;5070287;28;20958;-68
2021/03/25 11:11:16;;;;;;;7.90;5.43;;;15.40;7.00;;;;;;5070134;28;20568;-68
2021/03/25 11:13:43;;;;;;;6.60;5.10;;;15.40;6.40;;;;;;5069625;28;20449;-68
2021/03/25 11:16:19;;;;;;;7.93;6.20;;;15.80;1.70;;;;;;5070330;28;20446;-68
2021/03/25 11:18:50;;;;;;;6.20;4.63;;;15.80;1.00;;;;;;5078035;28;20527;-68
2021/03/25 11:21:23;;;;;;;9.63;5.70;;;15.70;1.00;;;;;;5090547;28;20530;-68
2021/03/25 11:23:57;;;;;;;9.80;4.93;;;16.00;1.00;;;;;;5089982;28;20567;-68
2021/03/25 11:26:24;;;;;;;7.50;4.70;;;16.10;1.00;;;;;;5089987;28;20936;-68
2021/03/25 11:28:50;;;;;;;8.67;4.50;;;16.10;1.00;;;;;;5090216;28;20574;-68
2021/03/25 11:31:21;;;;;;;9.50;4.93;;;16.20;1.00;;;;;;5090037;28;20583;-67
2021/03/25 11:33:49;;;;;;;10.60;4.90;;;16.20;1.00;;;;;;5090179;28;20469;-68
2021/03/25 11:36:35;;;;;;;12.93;5.33;;;16.30;1.00;;;;;;5089957;28;20867;-68
2021/03/25 11:39:14;;;;;;;8.23;4.67;;;16.50;1.00;;;;;;5090034;28;20452;-68
2021/03/25 11:41:41;;;;;;;9.90;5.53;;;16.70;1.00;;;;;;5090207;28;20532;-68
2021/03/25 11:44:09;;;;;;;8.33;5.83;;;16.70;1.00;;;;;;5089921;28;20488;-68
2021/03/25 11:46:40;;;;;;;11.07;5.47;;;16.80;1.00;;;;;;5089795;28;20945;-68
2021/03/25 11:49:11;;;;;;;7.30;4.60;;;16.80;1.00;;;;;;5089705;28;20448;-68
2021/03/25 11:51:40;;;;;;;8.60;4.70;;;17.10;1.00;;;;;;5090180;28;20495;-68
2021/03/25 11:54:25;;;;;;;9.80;5.03;;;17.20;1.00;;;;;;5089885;28;20448;-68
2021/03/25 11:56:56;;;;;;;7.60;5.13;;;17.20;1.00;;;;;;5089152;28;20488;-68
2021/03/25 11:59:26;;;;;;;7.27;4.70;;;17.40;1.00;;;;;;5090290;28;20448;-68
2021/03/25 12:02:21;;;;;;;10.27;5.53;;;17.70;1.00;;;;;;5089780;28;20535;-68
2021/03/25 12:04:49;;;;;;;12.90;5.40;;;17.60;1.00;;;;;;5088530;28;20972;-68
2021/03/25 12:07:17;;;;;;;8.93;5.23;;;17.80;1.00;;;;;;5072260;28;20802;-68
2021/03/25 12:09:58;;;;;;;10.53;5.70;;;17.90;1.00;;;;;;5069408;28;20540;-68
2021/03/25 12:12:25;;;;;;;7.43;5.10;;;18.20;1.00;;;;;;5069705;28;20519;-68
2021/03/25 12:14:51;;;;;;;7.90;5.40;;;18.30;1.00;;;;;;5069540;28;20441;-68
2021/03/25 12:17:19;;;;;;;11.20;5.73;;;18.30;1.00;;;;;;5069511;28;20483;-68
2021/03/25 12:19:45;;;;;;;7.97;5.30;;;18.50;1.00;;;;;;5069697;28;20907;-69
2021/03/25 12:22:14;;;;;;;7.83;5.80;;;18.50;1.00;;;;;;5069848;28;20473;-68
2021/03/25 12:24:41;;;;;;;8.93;6.00;;;18.40;1.00;;;;;;5072254;28;20533;-68
2021/03/25 12:27:15;;;;;;;12.07;6.00;;;18.40;1.00;;;;;;5072546;28;20587;-66
2021/03/25 12:29:41;;;;;;;6.53;5.53;;;18.00;1.00;;;;;;5073372;28;20565;-67
2021/03/25 12:32:10;;;;;;;13.83;6.20;;;18.00;1.00;;;;;;5072371;28;20525;-67
2021/03/25 12:34:37;;;;;;;8.67;6.07;;;18.10;1.00;;;;;;5073312;28;20532;-68
2021/03/25 12:37:04;;;;;;;10.63;6.50;;;18.40;1.00;;;;;;5072442;28;20446;-67
2021/03/25 12:39:31;;;;;;;15.27;6.87;;;18.40;1.00;;;;;;5073364;28;20884;-67
2021/03/25 12:41:58;;;;;;;14.77;8.00;;;18.30;1.00;;;;;;5072841;28;20445;-68
2021/03/25 12:44:25;;;;;;;8.97;7.00;;;18.10;1.00;;;;;;5073048;28;20873;-67
2021/03/25 12:46:51;;;;;;;10.30;6.07;;;18.20;1.00;;;;;;5072355;28;20499;-67
2021/03/25 12:49:18;;;;;;;10.20;6.30;;;18.40;1.00;;;;;;5072986;28;20533;-67
2021/03/25 12:51:44;;;;;;;11.80;7.70;;;18.50;1.00;;;;;;5072980;28;20517;-67
2021/03/25 12:54:11;;;;;;;10.93;6.60;;;18.00;1.00;;;;;;5073114;28;20565;-67
2021/03/25 12:56:39;;;;;;;15.87;7.90;;;17.80;1.00;;;;;;5072584;28;20536;-67
2021/03/25 12:59:13;;;;;;;12.20;6.53;;;17.70;1.00;;;;;;5072606;28;20904;-67
2021/03/25 13:01:40;;;;;;;16.77;7.60;;;17.90;1.00;;;;;;5073099;28;20517;-68
2021/03/25 13:04:07;;;;;;;15.30;7.10;;;17.80;1.00;;;;;;5079695;28;20837;-68
2021/03/25 13:06:35;;;;;;;15.30;7.40;;;17.60;1.00;;;;;;5078169;28;20449;-67
2021/03/25 13:09:02;;;;;;;14.90;7.13;;;17.60;1.00;;;;;;5072442;28;20477;-67
2021/03/25 13:11:30;;;;;;;14.20;6.23;;;17.70;1.00;;;;;;5072167;28;21073;-68
2021/03/25 13:13:59;;;;;;;10.70;5.80;;;17.80;1.00;;;;;;5072380;28;20444;-67
2021/03/25 13:16:26;;;;;;;8.90;5.73;;;18.10;1.00;;;;;;5072004;28;20774;-67
2021/03/25 13:18:53;;;;;;;7.10;5.63;;;18.10;1.00;;;;;;5072147;28;20438;-68
2021/03/25 13:21:20;;;;;;;8.60;5.43;;;18.30;1.00;;;;;;5072785;28;20499;-68
2021/03/25 13:23:46;;;;;;;7.87;5.17;;;18.50;1.00;;;;;;5072118;28;20446;-68